sensor_id;sensor_type;location;lat;lon;timestamp;temperature;humidity
5850;DHT22;2951;47.712;9.400;2023-11-19T00:00:37;7.30;99.90
5850;DHT22;2951;47.712;9.400;2023-11-19T00:03:06;7.30;99.90
5850;DHT22;2951;47.712;9.400;2023-11-19T00:05:33;7.30;99.90
5850;DHT22;2951;47.712;9.400;2023-11-19T00:08:00;7.30;99.90
5850;DHT22;2951;47.712;9.400;2023-11-19T00:10:26;7.30;99.90
5850;DHT22;2951;47.712;9.400;2023-11-19T00:12:53;7.30;99.90
5850;DHT22;2951;47.712;9.400;2023-11-19T00:15:20;7.30;99.90
5850;DHT22;2951;47.712;9.400;2023-11-19T00:17:47;7.30;99.90
5850;DHT22;2951;47.712;9.400;2023-11-19T00:20:15;7.30;99.90
5850;DHT22;2951;47.712;9.400;2023-11-19T00:22:42;7.40;99.90
5850;DHT22;2951;47.712;9.400;2023-11-19T00:25:12;7.40;99.90
5850;DHT22;2951;47.712;9.400;2023-11-19T00:27:39;7.40;99.90
5850;DHT22;2951;47.712;9.400;2023-11-19T00:30:06;7.30;99.90
5850;DHT22;2951;47.712;9.400;2023-11-19T00:32:34;7.40;99.90
5850;DHT22;2951;47.712;9.400;2023-11-19T00:35:00;7.40;99.90
5850;DHT22;2951;47.712;9.400;2023-11-19T00:37:27;7.40;99.90
5850;DHT22;2951;47.712;9.400;2023-11-19T00:39:55;7.40;99.90
5850;DHT22;2951;47.712;9.400;2023-11-19T00:42:22;7.40;99.90
5850;DHT22;2951;47.712;9.400;2023-11-19T00:44:51;7.50;99.90
5850;DHT22;2951;47.712;9.400;2023-11-19T00:47:17;7.40;99.90
5850;DHT22;2951;47.712;9.400;2023-11-19T00:49:47;7.50;99.90
5850;DHT22;2951;47.712;9.400;2023-11-19T00:52:15;7.50;99.90
5850;DHT22;2951;47.712;9.400;2023-11-19T00:54:42;7.50;99.90
5850;DHT22;2951;47.712;9.400;2023-11-19T00:57:09;7.50;99.90
5850;DHT22;2951;47.712;9.400;2023-11-19T00:59:36;7.50;99.90
5850;DHT22;2951;47.712;9.400;2023-11-19T01:02:06;7.60;99.90
5850;DHT22;2951;47.712;9.400;2023-11-19T01:04:33;7.60;99.90
5850;DHT22;2951;47.712;9.400;2023-11-19T01:07:01;7.60;99.90
5850;DHT22;2951;47.712;9.400;2023-11-19T01:09:29;7.60;99.90
5850;DHT22;2951;47.712;9.400;2023-11-19T01:11:58;7.60;99.90
5850;DHT22;2951;47.712;9.400;2023-11-19T01:14:27;7.60;99.90
5850;DHT22;2951;47.712;9.400;2023-11-19T01:16:55;7.60;99.90
5850;DHT22;2951;47.712;9.400;2023-11-19T01:19:22;7.60;99.90
5850;DHT22;2951;47.712;9.400;2023-11-19T01:21:50;7.60;99.90
5850;DHT22;2951;47.712;9.400;2023-11-19T01:24:17;7.60;99.90
5850;DHT22;2951;47.712;9.400;2023-11-19T01:26:44;7.60;99.90
5850;DHT22;2951;47.712;9.400;2023-11-19T01:29:13;7.60;99.90
5850;DHT22;2951;47.712;9.400;2023-11-19T01:31:40;7.70;99.90
5850;DHT22;2951;47.712;9.400;2023-11-19T01:34:07;7.60;99.90
5850;DHT22;2951;47.712;9.400;2023-11-19T01:36:34;7.60;99.90
5850;DHT22;2951;47.712;9.400;2023-11-19T01:39:04;7.60;99.90
5850;DHT22;2951;47.712;9.400;2023-11-19T01:41:34;7.60;99.90
5850;DHT22;2951;47.712;9.400;2023-11-19T01:44:02;7.60;99.90
5850;DHT22;2951;47.712;9.400;2023-11-19T01:46:29;7.60;99.90
5850;DHT22;2951;47.712;9.400;2023-11-19T01:48:56;7.60;99.90
5850;DHT22;2951;47.712;9.400;2023-11-19T01:51:23;7.60;99.90
5850;DHT22;2951;47.712;9.400;2023-11-19T01:53:51;7.60;99.90
5850;DHT22;2951;47.712;9.400;2023-11-19T01:56:18;7.60;99.90
5850;DHT22;2951;47.712;9.400;2023-11-19T01:58:47;7.60;99.90
5850;DHT22;2951;47.712;9.400;2023-11-19T02:01:15;7.60;99.90
5850;DHT22;2951;47.712;9.400;2023-11-19T02:03:44;7.60;99.90
5850;DHT22;2951;47.712;9.400;2023-11-19T02:06:11;7.60;99.90
5850;DHT22;2951;47.712;9.400;2023-11-19T02:08:37;7.60;99.90
5850;DHT22;2951;47.712;9.400;2023-11-19T02:11:05;7.60;99.90
5850;DHT22;2951;47.712;9.400;2023-11-19T02:13:33;7.60;99.90
5850;DHT22;2951;47.712;9.400;2023-11-19T02:16:03;7.60;99.90
5850;DHT22;2951;47.712;9.400;2023-11-19T02:18:30;7.60;99.90
5850;DHT22;2951;47.712;9.400;2023-11-19T02:20:57;7.60;99.90
5850;DHT22;2951;47.712;9.400;2023-11-19T02:23:28;7.60;99.90
5850;DHT22;2951;47.712;9.400;2023-11-19T02:28:27;7.70;99.90
5850;DHT22;2951;47.712;9.400;2023-11-19T02:30:54;7.70;99.90
5850;DHT22;2951;47.712;9.400;2023-11-19T02:33:21;7.70;99.90
5850;DHT22;2951;47.712;9.400;2023-11-19T02:35:48;7.80;99.90
5850;DHT22;2951;47.712;9.400;2023-11-19T02:38:14;7.80;99.90
5850;DHT22;2951;47.712;9.400;2023-11-19T02:40:41;7.80;99.90
5850;DHT22;2951;47.712;9.400;2023-11-19T02:43:32;7.90;99.90
5850;DHT22;2951;47.712;9.400;2023-11-19T02:46:00;7.90;99.90
5850;DHT22;2951;47.712;9.400;2023-11-19T02:48:27;7.90;99.90
5850;DHT22;2951;47.712;9.400;2023-11-19T02:50:54;7.90;99.90
5850;DHT22;2951;47.712;9.400;2023-11-19T02:53:21;7.90;99.90
5850;DHT22;2951;47.712;9.400;2023-11-19T02:55:48;7.80;99.90
5850;DHT22;2951;47.712;9.400;2023-11-19T02:58:20;7.80;99.90
5850;DHT22;2951;47.712;9.400;2023-11-19T03:00:52;7.70;99.90
5850;DHT22;2951;47.712;9.400;2023-11-19T03:03:21;7.70;99.90
5850;DHT22;2951;47.712;9.400;2023-11-19T03:05:49;7.60;99.90
5850;DHT22;2951;47.712;9.400;2023-11-19T03:08:16;7.60;99.90
5850;DHT22;2951;47.712;9.400;2023-11-19T03:10:46;7.60;99.90
5850;DHT22;2951;47.712;9.400;2023-11-19T03:13:13;7.50;99.90
5850;DHT22;2951;47.712;9.400;2023-11-19T03:15:44;7.50;99.90
5850;DHT22;2951;47.712;9.400;2023-11-19T03:18:10;7.50;99.90
5850;DHT22;2951;47.712;9.400;2023-11-19T03:20:37;7.50;99.90
5850;DHT22;2951;47.712;9.400;2023-11-19T03:23:04;7.50;99.90
5850;DHT22;2951;47.712;9.400;2023-11-19T03:25:32;7.50;99.90
5850;DHT22;2951;47.712;9.400;2023-11-19T03:28:03;7.50;99.90
5850;DHT22;2951;47.712;9.400;2023-11-19T03:30:32;7.50;99.90
5850;DHT22;2951;47.712;9.400;2023-11-19T03:33:00;7.50;99.90
5850;DHT22;2951;47.712;9.400;2023-11-19T03:35:27;7.50;99.90
5850;DHT22;2951;47.712;9.400;2023-11-19T03:37:55;7.50;99.90
5850;DHT22;2951;47.712;9.400;2023-11-19T03:40:22;7.50;99.90
5850;DHT22;2951;47.712;9.400;2023-11-19T03:42:49;7.50;99.90
5850;DHT22;2951;47.712;9.400;2023-11-19T03:45:16;7.50;99.90
5850;DHT22;2951;47.712;9.400;2023-11-19T03:47:43;7.50;99.90
5850;DHT22;2951;47.712;9.400;2023-11-19T03:50:09;7.40;99.90
5850;DHT22;2951;47.712;9.400;2023-11-19T03:52:37;7.40;99.90
5850;DHT22;2951;47.712;9.400;2023-11-19T03:55:07;7.40;99.90
5850;DHT22;2951;47.712;9.400;2023-11-19T03:57:35;7.40;99.90
5850;DHT22;2951;47.712;9.400;2023-11-19T04:00:04;7.40;99.90
5850;DHT22;2951;47.712;9.400;2023-11-19T04:02:37;7.50;99.90
5850;DHT22;2951;47.712;9.400;2023-11-19T04:05:06;7.50;99.90
5850;DHT22;2951;47.712;9.400;2023-11-19T04:07:33;7.50;99.90
5850;DHT22;2951;47.712;9.400;2023-11-19T04:10:00;7.50;99.90
5850;DHT22;2951;47.712;9.400;2023-11-19T04:12:27;7.50;99.90
5850;DHT22;2951;47.712;9.400;2023-11-19T04:14:55;7.50;99.90
5850;DHT22;2951;47.712;9.400;2023-11-19T04:17:25;7.50;99.90
5850;DHT22;2951;47.712;9.400;2023-11-19T04:19:52;7.60;99.90
5850;DHT22;2951;47.712;9.400;2023-11-19T04:22:19;7.60;99.90
5850;DHT22;2951;47.712;9.400;2023-11-19T04:24:45;7.60;99.90
5850;DHT22;2951;47.712;9.400;2023-11-19T04:27:13;7.50;99.90
5850;DHT22;2951;47.712;9.400;2023-11-19T04:29:41;7.60;99.90
5850;DHT22;2951;47.712;9.400;2023-11-19T04:32:08;7.60;99.90
5850;DHT22;2951;47.712;9.400;2023-11-19T04:34:35;7.70;99.90
5850;DHT22;2951;47.712;9.400;2023-11-19T04:37:04;7.60;99.90
5850;DHT22;2951;47.712;9.400;2023-11-19T04:39:34;7.70;99.90
5850;DHT22;2951;47.712;9.400;2023-11-19T04:42:01;7.70;99.90
5850;DHT22;2951;47.712;9.400;2023-11-19T04:44:28;7.70;99.90
5850;DHT22;2951;47.712;9.400;2023-11-19T04:46:56;7.70;99.90
5850;DHT22;2951;47.712;9.400;2023-11-19T04:49:24;7.70;99.90
5850;DHT22;2951;47.712;9.400;2023-11-19T04:51:58;7.70;99.90
5850;DHT22;2951;47.712;9.400;2023-11-19T04:54:25;7.70;99.90
5850;DHT22;2951;47.712;9.400;2023-11-19T04:56:52;7.80;99.90
5850;DHT22;2951;47.712;9.400;2023-11-19T04:59:23;7.90;99.90
5850;DHT22;2951;47.712;9.400;2023-11-19T05:01:51;7.90;99.90
5850;DHT22;2951;47.712;9.400;2023-11-19T05:04:17;7.90;99.90
5850;DHT22;2951;47.712;9.400;2023-11-19T05:06:46;7.90;99.90
5850;DHT22;2951;47.712;9.400;2023-11-19T05:09:12;7.90;99.90
5850;DHT22;2951;47.712;9.400;2023-11-19T05:11:40;8.00;99.90
5850;DHT22;2951;47.712;9.400;2023-11-19T05:14:10;7.90;99.90
5850;DHT22;2951;47.712;9.400;2023-11-19T05:16:39;8.00;99.90
5850;DHT22;2951;47.712;9.400;2023-11-19T05:19:06;8.00;99.90
5850;DHT22;2951;47.712;9.400;2023-11-19T05:21:32;8.00;99.90
5850;DHT22;2951;47.712;9.400;2023-11-19T05:24:01;8.00;99.90
5850;DHT22;2951;47.712;9.400;2023-11-19T05:26:30;8.00;99.90
5850;DHT22;2951;47.712;9.400;2023-11-19T05:28:58;8.00;99.90
5850;DHT22;2951;47.712;9.400;2023-11-19T05:31:24;8.10;99.90
5850;DHT22;2951;47.712;9.400;2023-11-19T05:33:51;8.10;99.90
5850;DHT22;2951;47.712;9.400;2023-11-19T05:36:18;8.20;99.90
5850;DHT22;2951;47.712;9.400;2023-11-19T05:38:45;8.20;99.90
5850;DHT22;2951;47.712;9.400;2023-11-19T05:41:12;8.20;99.90
5850;DHT22;2951;47.712;9.400;2023-11-19T05:43:39;8.30;99.90
5850;DHT22;2951;47.712;9.400;2023-11-19T05:46:07;8.30;99.90
5850;DHT22;2951;47.712;9.400;2023-11-19T05:48:45;8.40;99.90
5850;DHT22;2951;47.712;9.400;2023-11-19T05:51:15;8.50;99.90
5850;DHT22;2951;47.712;9.400;2023-11-19T05:53:42;8.60;99.90
5850;DHT22;2951;47.712;9.400;2023-11-19T05:56:09;8.70;99.90
5850;DHT22;2951;47.712;9.400;2023-11-19T05:58:43;8.70;99.90
5850;DHT22;2951;47.712;9.400;2023-11-19T06:01:11;8.80;99.90
5850;DHT22;2951;47.712;9.400;2023-11-19T06:03:38;8.90;99.90
5850;DHT22;2951;47.712;9.400;2023-11-19T06:06:05;8.90;99.90
5850;DHT22;2951;47.712;9.400;2023-11-19T06:08:32;8.90;99.90
5850;DHT22;2951;47.712;9.400;2023-11-19T06:10:59;9.00;99.90
5850;DHT22;2951;47.712;9.400;2023-11-19T06:13:29;9.00;99.90
5850;DHT22;2951;47.712;9.400;2023-11-19T06:15:57;9.00;99.90
5850;DHT22;2951;47.712;9.400;2023-11-19T06:18:24;9.00;99.90
5850;DHT22;2951;47.712;9.400;2023-11-19T06:20:51;9.10;99.90
5850;DHT22;2951;47.712;9.400;2023-11-19T06:23:18;9.10;99.90
5850;DHT22;2951;47.712;9.400;2023-11-19T06:25:46;9.10;99.90
5850;DHT22;2951;47.712;9.400;2023-11-19T06:28:12;9.10;99.90
5850;DHT22;2951;47.712;9.400;2023-11-19T06:30:39;9.20;99.90
5850;DHT22;2951;47.712;9.400;2023-11-19T06:33:07;9.30;99.90
5850;DHT22;2951;47.712;9.400;2023-11-19T06:35:37;9.40;99.90
5850;DHT22;2951;47.712;9.400;2023-11-19T06:38:03;9.40;99.90
5850;DHT22;2951;47.712;9.400;2023-11-19T06:40:33;9.50;99.90
5850;DHT22;2951;47.712;9.400;2023-11-19T06:43:01;9.50;99.90
5850;DHT22;2951;47.712;9.400;2023-11-19T06:45:30;9.60;99.90
5850;DHT22;2951;47.712;9.400;2023-11-19T06:47:56;9.70;99.90
5850;DHT22;2951;47.712;9.400;2023-11-19T06:50:25;9.80;99.90
5850;DHT22;2951;47.712;9.400;2023-11-19T06:52:51;9.80;99.90
5850;DHT22;2951;47.712;9.400;2023-11-19T06:55:18;9.80;99.90
5850;DHT22;2951;47.712;9.400;2023-11-19T06:57:45;9.90;99.90
5850;DHT22;2951;47.712;9.400;2023-11-19T07:00:16;9.90;99.90
5850;DHT22;2951;47.712;9.400;2023-11-19T07:02:43;9.90;99.90
5850;DHT22;2951;47.712;9.400;2023-11-19T07:05:11;10.00;99.90
5850;DHT22;2951;47.712;9.400;2023-11-19T07:07:39;10.00;99.90
5850;DHT22;2951;47.712;9.400;2023-11-19T07:10:07;10.00;99.90
5850;DHT22;2951;47.712;9.400;2023-11-19T07:12:37;10.10;99.90
5850;DHT22;2951;47.712;9.400;2023-11-19T07:15:04;10.10;99.90
5850;DHT22;2951;47.712;9.400;2023-11-19T07:17:31;10.10;99.90
5850;DHT22;2951;47.712;9.400;2023-11-19T07:19:58;10.10;99.90
5850;DHT22;2951;47.712;9.400;2023-11-19T07:22:26;10.20;99.90
5850;DHT22;2951;47.712;9.400;2023-11-19T07:24:53;10.20;99.90
5850;DHT22;2951;47.712;9.400;2023-11-19T07:27:20;10.20;99.90
5850;DHT22;2951;47.712;9.400;2023-11-19T07:29:46;10.20;99.90
5850;DHT22;2951;47.712;9.400;2023-11-19T07:32:13;10.20;99.90
5850;DHT22;2951;47.712;9.400;2023-11-19T07:34:40;10.30;99.90
5850;DHT22;2951;47.712;9.400;2023-11-19T07:37:07;10.30;99.90
5850;DHT22;2951;47.712;9.400;2023-11-19T07:39:34;10.30;99.90
5850;DHT22;2951;47.712;9.400;2023-11-19T07:42:01;10.30;99.90
5850;DHT22;2951;47.712;9.400;2023-11-19T07:44:28;10.40;99.90
5850;DHT22;2951;47.712;9.400;2023-11-19T07:46:55;10.40;99.90
5850;DHT22;2951;47.712;9.400;2023-11-19T07:49:23;10.40;99.90
5850;DHT22;2951;47.712;9.400;2023-11-19T07:51:50;10.40;99.90
5850;DHT22;2951;47.712;9.400;2023-11-19T07:54:17;10.40;99.90
5850;DHT22;2951;47.712;9.400;2023-11-19T07:56:44;10.40;99.90
5850;DHT22;2951;47.712;9.400;2023-11-19T07:59:11;10.50;99.90
5850;DHT22;2951;47.712;9.400;2023-11-19T08:01:40;10.50;99.90
5850;DHT22;2951;47.712;9.400;2023-11-19T08:04:07;10.50;99.90
5850;DHT22;2951;47.712;9.400;2023-11-19T08:06:35;10.50;99.90
5850;DHT22;2951;47.712;9.400;2023-11-19T08:09:01;10.60;99.90
5850;DHT22;2951;47.712;9.400;2023-11-19T08:11:30;10.60;99.90
5850;DHT22;2951;47.712;9.400;2023-11-19T08:13:57;10.60;99.90
5850;DHT22;2951;47.712;9.400;2023-11-19T08:16:24;10.60;99.90
5850;DHT22;2951;47.712;9.400;2023-11-19T08:18:51;10.60;99.90
5850;DHT22;2951;47.712;9.400;2023-11-19T08:21:17;10.60;99.90
5850;DHT22;2951;47.712;9.400;2023-11-19T08:23:44;10.70;99.90
5850;DHT22;2951;47.712;9.400;2023-11-19T08:26:11;10.70;99.90
5850;DHT22;2951;47.712;9.400;2023-11-19T08:28:38;10.60;99.90
5850;DHT22;2951;47.712;9.400;2023-11-19T08:31:04;10.60;99.90
5850;DHT22;2951;47.712;9.400;2023-11-19T08:33:32;10.70;99.90
5850;DHT22;2951;47.712;9.400;2023-11-19T08:35:58;10.70;99.90
5850;DHT22;2951;47.712;9.400;2023-11-19T08:38:25;10.70;99.90
5850;DHT22;2951;47.712;9.400;2023-11-19T08:40:56;10.70;99.90
5850;DHT22;2951;47.712;9.400;2023-11-19T08:43:28;10.70;99.90
5850;DHT22;2951;47.712;9.400;2023-11-19T08:45:57;10.80;99.90
5850;DHT22;2951;47.712;9.400;2023-11-19T08:48:24;10.80;99.90
5850;DHT22;2951;47.712;9.400;2023-11-19T08:50:50;10.80;99.90
5850;DHT22;2951;47.712;9.400;2023-11-19T08:53:18;10.80;99.90
5850;DHT22;2951;47.712;9.400;2023-11-19T08:55:44;10.80;99.90
5850;DHT22;2951;47.712;9.400;2023-11-19T08:58:11;10.80;99.90
5850;DHT22;2951;47.712;9.400;2023-11-19T09:00:38;10.80;99.90
5850;DHT22;2951;47.712;9.400;2023-11-19T09:03:05;10.80;99.90
5850;DHT22;2951;47.712;9.400;2023-11-19T09:05:32;10.80;99.90
5850;DHT22;2951;47.712;9.400;2023-11-19T09:07:59;10.90;99.90
5850;DHT22;2951;47.712;9.400;2023-11-19T09:10:25;10.90;99.90
5850;DHT22;2951;47.712;9.400;2023-11-19T09:12:53;10.90;99.90
5850;DHT22;2951;47.712;9.400;2023-11-19T09:15:23;11.00;99.90
5850;DHT22;2951;47.712;9.400;2023-11-19T09:17:50;11.00;99.90
5850;DHT22;2951;47.712;9.400;2023-11-19T09:20:17;11.00;99.90
5850;DHT22;2951;47.712;9.400;2023-11-19T09:22:44;11.00;99.90
5850;DHT22;2951;47.712;9.400;2023-11-19T09:25:10;11.10;99.90
5850;DHT22;2951;47.712;9.400;2023-11-19T09:27:37;11.10;99.90
5850;DHT22;2951;47.712;9.400;2023-11-19T09:30:06;11.10;99.90
5850;DHT22;2951;47.712;9.400;2023-11-19T09:32:34;11.10;99.90
5850;DHT22;2951;47.712;9.400;2023-11-19T09:35:00;11.10;99.90
5850;DHT22;2951;47.712;9.400;2023-11-19T09:37:28;11.20;99.90
5850;DHT22;2951;47.712;9.400;2023-11-19T09:39:55;11.20;99.90
5850;DHT22;2951;47.712;9.400;2023-11-19T09:42:23;11.20;99.90
5850;DHT22;2951;47.712;9.400;2023-11-19T09:44:50;11.30;99.90
5850;DHT22;2951;47.712;9.400;2023-11-19T09:47:17;11.30;99.90
5850;DHT22;2951;47.712;9.400;2023-11-19T09:49:45;11.30;99.90
5850;DHT22;2951;47.712;9.400;2023-11-19T09:52:12;11.40;99.90
5850;DHT22;2951;47.712;9.400;2023-11-19T09:54:39;11.50;99.90
5850;DHT22;2951;47.712;9.400;2023-11-19T09:57:06;11.60;99.90
5850;DHT22;2951;47.712;9.400;2023-11-19T09:59:37;11.60;99.90
5850;DHT22;2951;47.712;9.400;2023-11-19T10:02:07;11.70;99.90
5850;DHT22;2951;47.712;9.400;2023-11-19T10:04:36;11.80;99.90
5850;DHT22;2951;47.712;9.400;2023-11-19T10:07:04;11.80;99.90
5850;DHT22;2951;47.712;9.400;2023-11-19T10:09:30;11.90;99.90
5850;DHT22;2951;47.712;9.400;2023-11-19T10:11:57;11.90;99.90
5850;DHT22;2951;47.712;9.400;2023-11-19T10:14:24;12.00;99.90
5850;DHT22;2951;47.712;9.400;2023-11-19T10:16:50;12.00;99.90
5850;DHT22;2951;47.712;9.400;2023-11-19T10:19:20;12.00;99.90
5850;DHT22;2951;47.712;9.400;2023-11-19T10:21:49;12.10;99.90
5850;DHT22;2951;47.712;9.400;2023-11-19T10:24:16;12.10;99.90
5850;DHT22;2951;47.712;9.400;2023-11-19T10:26:45;12.10;99.90
5850;DHT22;2951;47.712;9.400;2023-11-19T10:29:13;12.10;99.90
5850;DHT22;2951;47.712;9.400;2023-11-19T10:31:41;12.00;99.90
5850;DHT22;2951;47.712;9.400;2023-11-19T10:34:25;12.10;99.90
5850;DHT22;2951;47.712;9.400;2023-11-19T10:36:52;12.10;99.90
5850;DHT22;2951;47.712;9.400;2023-11-19T10:39:19;12.10;99.90
5850;DHT22;2951;47.712;9.400;2023-11-19T10:41:47;12.10;99.90
5850;DHT22;2951;47.712;9.400;2023-11-19T10:44:30;12.10;99.90
5850;DHT22;2951;47.712;9.400;2023-11-19T10:46:58;12.10;99.90
5850;DHT22;2951;47.712;9.400;2023-11-19T10:49:25;12.20;99.90
5850;DHT22;2951;47.712;9.400;2023-11-19T10:51:52;12.20;99.90
5850;DHT22;2951;47.712;9.400;2023-11-19T10:54:19;12.20;99.90
5850;DHT22;2951;47.712;9.400;2023-11-19T10:56:48;12.20;99.90
5850;DHT22;2951;47.712;9.400;2023-11-19T10:59:16;12.20;99.90
5850;DHT22;2951;47.712;9.400;2023-11-19T11:01:48;12.20;99.90
5850;DHT22;2951;47.712;9.400;2023-11-19T11:04:24;12.10;99.90
5850;DHT22;2951;47.712;9.400;2023-11-19T11:06:55;12.10;99.90
5850;DHT22;2951;47.712;9.400;2023-11-19T11:09:26;12.10;99.90
5850;DHT22;2951;47.712;9.400;2023-11-19T11:11:53;12.10;99.90
5850;DHT22;2951;47.712;9.400;2023-11-19T11:14:21;12.20;99.90
5850;DHT22;2951;47.712;9.400;2023-11-19T11:16:48;12.30;99.90
5850;DHT22;2951;47.712;9.400;2023-11-19T11:19:16;12.20;99.90
5850;DHT22;2951;47.712;9.400;2023-11-19T11:21:45;12.20;99.90
5850;DHT22;2951;47.712;9.400;2023-11-19T11:24:20;12.20;99.90
5850;DHT22;2951;47.712;9.400;2023-11-19T11:26:58;12.20;99.90
5850;DHT22;2951;47.712;9.400;2023-11-19T11:29:35;12.30;99.90
5850;DHT22;2951;47.712;9.400;2023-11-19T11:39:57;12.30;99.90
5850;DHT22;2951;47.712;9.400;2023-11-19T11:45:00;12.40;99.90
5850;DHT22;2951;47.712;9.400;2023-11-19T11:50:09;12.50;99.90
5850;DHT22;2951;47.712;9.400;2023-11-19T11:55:27;12.60;99.90
5850;DHT22;2951;47.712;9.400;2023-11-19T11:57:55;12.60;99.90
5850;DHT22;2951;47.712;9.400;2023-11-19T12:00:31;12.60;99.90
5850;DHT22;2951;47.712;9.400;2023-11-19T12:03:03;12.70;99.90
5850;DHT22;2951;47.712;9.400;2023-11-19T12:05:30;12.70;99.90
5850;DHT22;2951;47.712;9.400;2023-11-19T12:08:03;12.70;99.90
5850;DHT22;2951;47.712;9.400;2023-11-19T12:10:31;12.80;99.90
5850;DHT22;2951;47.712;9.400;2023-11-19T12:12:59;12.80;99.90
5850;DHT22;2951;47.712;9.400;2023-11-19T12:15:26;12.90;99.90
5850;DHT22;2951;47.712;9.400;2023-11-19T12:17:56;13.00;99.90
5850;DHT22;2951;47.712;9.400;2023-11-19T12:20:24;13.00;99.90
5850;DHT22;2951;47.712;9.400;2023-11-19T12:22:53;13.10;99.90
5850;DHT22;2951;47.712;9.400;2023-11-19T12:25:20;13.00;99.90
5850;DHT22;2951;47.712;9.400;2023-11-19T12:27:51;13.00;99.90
5850;DHT22;2951;47.712;9.400;2023-11-19T12:30:25;12.90;99.90
5850;DHT22;2951;47.712;9.400;2023-11-19T12:32:56;12.80;99.90
5850;DHT22;2951;47.712;9.400;2023-11-19T12:35:23;12.80;99.90
5850;DHT22;2951;47.712;9.400;2023-11-19T12:37:51;12.70;99.90
5850;DHT22;2951;47.712;9.400;2023-11-19T12:40:23;12.70;99.90
5850;DHT22;2951;47.712;9.400;2023-11-19T12:42:51;12.70;99.90
5850;DHT22;2951;47.712;9.400;2023-11-19T12:45:34;12.70;99.90
5850;DHT22;2951;47.712;9.400;2023-11-19T12:48:05;12.70;99.90
5850;DHT22;2951;47.712;9.400;2023-11-19T12:53:18;12.90;99.90
5850;DHT22;2951;47.712;9.400;2023-11-19T12:55:45;12.90;99.90
5850;DHT22;2951;47.712;9.400;2023-11-19T12:58:27;12.90;99.90
5850;DHT22;2951;47.712;9.400;2023-11-19T13:01:01;12.90;99.90
5850;DHT22;2951;47.712;9.400;2023-11-19T13:03:32;12.90;99.90
5850;DHT22;2951;47.712;9.400;2023-11-19T13:08:40;12.90;99.90
5850;DHT22;2951;47.712;9.400;2023-11-19T13:11:07;12.90;99.90
5850;DHT22;2951;47.712;9.400;2023-11-19T13:16:20;12.90;99.90
5850;DHT22;2951;47.712;9.400;2023-11-19T13:18:46;13.00;99.90
5850;DHT22;2951;47.712;9.400;2023-11-19T13:21:13;13.00;99.90
5850;DHT22;2951;47.712;9.400;2023-11-19T13:23:43;13.00;99.90
5850;DHT22;2951;47.712;9.400;2023-11-19T13:26:10;13.00;99.90
5850;DHT22;2951;47.712;9.400;2023-11-19T13:28:39;13.10;99.90
5850;DHT22;2951;47.712;9.400;2023-11-19T13:31:07;13.10;99.90
5850;DHT22;2951;47.712;9.400;2023-11-19T13:33:34;13.20;99.90
5850;DHT22;2951;47.712;9.400;2023-11-19T13:36:01;13.20;99.90
5850;DHT22;2951;47.712;9.400;2023-11-19T13:38:33;13.20;99.90
5850;DHT22;2951;47.712;9.400;2023-11-19T13:41:04;13.10;99.90
5850;DHT22;2951;47.712;9.400;2023-11-19T13:43:31;13.00;99.90
5850;DHT22;2951;47.712;9.400;2023-11-19T13:46:00;13.00;99.90
5850;DHT22;2951;47.712;9.400;2023-11-19T13:48:27;13.00;99.90
5850;DHT22;2951;47.712;9.400;2023-11-19T13:50:55;13.00;99.90
5850;DHT22;2951;47.712;9.400;2023-11-19T13:53:23;12.90;99.90
5850;DHT22;2951;47.712;9.400;2023-11-19T13:55:52;12.90;99.90
5850;DHT22;2951;47.712;9.400;2023-11-19T13:58:19;12.80;99.90
5850;DHT22;2951;47.712;9.400;2023-11-19T14:00:48;12.80;99.90
5850;DHT22;2951;47.712;9.400;2023-11-19T14:03:15;12.80;99.90
5850;DHT22;2951;47.712;9.400;2023-11-19T14:05:41;12.80;99.90
5850;DHT22;2951;47.712;9.400;2023-11-19T14:08:08;12.80;99.90
5850;DHT22;2951;47.712;9.400;2023-11-19T14:10:45;12.80;99.90
5850;DHT22;2951;47.712;9.400;2023-11-19T14:13:13;12.80;99.90
5850;DHT22;2951;47.712;9.400;2023-11-19T14:15:41;12.70;99.90
5850;DHT22;2951;47.712;9.400;2023-11-19T14:18:09;12.70;99.90
5850;DHT22;2951;47.712;9.400;2023-11-19T14:20:37;12.70;99.90
5850;DHT22;2951;47.712;9.400;2023-11-19T14:23:05;12.70;99.90
5850;DHT22;2951;47.712;9.400;2023-11-19T14:25:32;12.70;99.90
5850;DHT22;2951;47.712;9.400;2023-11-19T14:27:59;12.70;99.90
5850;DHT22;2951;47.712;9.400;2023-11-19T14:30:25;12.70;99.90
5850;DHT22;2951;47.712;9.400;2023-11-19T14:32:53;12.70;99.90
5850;DHT22;2951;47.712;9.400;2023-11-19T14:35:20;12.70;99.90
5850;DHT22;2951;47.712;9.400;2023-11-19T14:37:47;12.70;99.90
5850;DHT22;2951;47.712;9.400;2023-11-19T14:40:14;12.70;99.90
5850;DHT22;2951;47.712;9.400;2023-11-19T14:42:42;12.70;99.90
5850;DHT22;2951;47.712;9.400;2023-11-19T14:45:09;12.70;99.90
5850;DHT22;2951;47.712;9.400;2023-11-19T14:47:38;12.70;99.90
5850;DHT22;2951;47.712;9.400;2023-11-19T14:50:06;12.70;99.90
5850;DHT22;2951;47.712;9.400;2023-11-19T14:52:36;12.70;99.90
5850;DHT22;2951;47.712;9.400;2023-11-19T14:55:03;12.70;99.90
5850;DHT22;2951;47.712;9.400;2023-11-19T14:57:30;12.60;99.90
5850;DHT22;2951;47.712;9.400;2023-11-19T14:59:57;12.70;99.90
5850;DHT22;2951;47.712;9.400;2023-11-19T15:02:36;12.60;99.90
5850;DHT22;2951;47.712;9.400;2023-11-19T15:05:03;12.70;99.90
5850;DHT22;2951;47.712;9.400;2023-11-19T15:07:30;12.70;99.90
5850;DHT22;2951;47.712;9.400;2023-11-19T15:09:57;12.70;99.90
5850;DHT22;2951;47.712;9.400;2023-11-19T15:12:24;12.60;99.90
5850;DHT22;2951;47.712;9.400;2023-11-19T15:14:51;12.50;99.90
5850;DHT22;2951;47.712;9.400;2023-11-19T15:17:17;12.40;99.90
5850;DHT22;2951;47.712;9.400;2023-11-19T15:19:44;12.30;99.90
5850;DHT22;2951;47.712;9.400;2023-11-19T15:22:12;12.30;99.90
5850;DHT22;2951;47.712;9.400;2023-11-19T15:24:40;12.10;99.90
5850;DHT22;2951;47.712;9.400;2023-11-19T15:27:08;12.00;99.90
5850;DHT22;2951;47.712;9.400;2023-11-19T15:29:40;12.00;99.90
5850;DHT22;2951;47.712;9.400;2023-11-19T15:32:07;11.90;99.90
5850;DHT22;2951;47.712;9.400;2023-11-19T15:34:33;11.90;99.90
5850;DHT22;2951;47.712;9.400;2023-11-19T15:37:03;11.90;99.90
5850;DHT22;2951;47.712;9.400;2023-11-19T15:39:30;11.80;99.90
5850;DHT22;2951;47.712;9.400;2023-11-19T15:41:58;11.80;99.90
5850;DHT22;2951;47.712;9.400;2023-11-19T15:44:25;11.80;99.90
5850;DHT22;2951;47.712;9.400;2023-11-19T15:46:54;11.70;99.90
5850;DHT22;2951;47.712;9.400;2023-11-19T15:49:21;11.70;99.90
5850;DHT22;2951;47.712;9.400;2023-11-19T15:51:47;11.60;99.90
5850;DHT22;2951;47.712;9.400;2023-11-19T15:54:15;11.60;99.90
5850;DHT22;2951;47.712;9.400;2023-11-19T15:56:42;11.60;99.90
5850;DHT22;2951;47.712;9.400;2023-11-19T15:59:08;11.50;99.90
5850;DHT22;2951;47.712;9.400;2023-11-19T16:01:35;11.50;99.90
5850;DHT22;2951;47.712;9.400;2023-11-19T16:04:05;11.50;99.90
5850;DHT22;2951;47.712;9.400;2023-11-19T16:06:32;11.40;99.90
5850;DHT22;2951;47.712;9.400;2023-11-19T16:09:01;11.50;99.90
5850;DHT22;2951;47.712;9.400;2023-11-19T16:11:28;11.50;99.90
5850;DHT22;2951;47.712;9.400;2023-11-19T16:13:55;11.50;99.90
5850;DHT22;2951;47.712;9.400;2023-11-19T16:16:22;11.50;99.90
5850;DHT22;2951;47.712;9.400;2023-11-19T16:18:49;11.50;99.90
5850;DHT22;2951;47.712;9.400;2023-11-19T16:21:16;11.60;99.90
5850;DHT22;2951;47.712;9.400;2023-11-19T16:23:44;11.50;99.90
5850;DHT22;2951;47.712;9.400;2023-11-19T16:26:11;11.50;99.90
5850;DHT22;2951;47.712;9.400;2023-11-19T16:28:38;11.50;99.90
5850;DHT22;2951;47.712;9.400;2023-11-19T16:31:07;11.40;99.90
5850;DHT22;2951;47.712;9.400;2023-11-19T16:33:34;11.40;99.90
5850;DHT22;2951;47.712;9.400;2023-11-19T16:36:01;11.30;99.90
5850;DHT22;2951;47.712;9.400;2023-11-19T16:38:28;11.30;99.90
5850;DHT22;2951;47.712;9.400;2023-11-19T16:40:55;11.20;99.90